LTCR Airport Information

Runway Information
Runway 03 Length 8204 ft width 118 ft
Elevation 1650 ft Threshold 0 ft Heading 37
Runway 21 Length 8204 ft Width 118 ft
Elevation 1728 ft Threshold 0 ft Heading 217
Airport Frequencies
Type TWR Name TWR Frequency 118.65 MHZ
Airport Navaids
Type VOR-DME Name Mardin Frequency 116900 KHZ
Type NDB Name Mardin Frequency 403 KHZ
Airport Weather Information & NOTAM
ADDS - METARS form results

(1436 UTC 19 January 2019)
Data provider http://aviationweather.gov/metar/data/
 
METAR text: LTCR 191350Z 35006KT 320V020 CAVOK 07/M06 Q1023
Conditions at: LTCR (MARDIN AIRPORT , TR) observed 1350 UTC 19 January 2019
Temperature: 7.0°C (45°F)
Dewpoint: -6.0°C (21°F) [RH = 39%]
Pressure (altimeter): 30.21 inches Hg (1023.0 mb)
Winds: from the N (350 degrees) at 7 MPH (6 knots; 3.1 m/s)
Visibility: 6 or more miles (10+ km)
Ceiling: ceiling and visibility are OK
Clouds: unknown
Weather: no significant weather observed at this time

Forecast for: LTCR (MARDIN AIRPORT , TR)
Text: TAF LTCR 191340Z 1915/1924 35008KT CAVOK
Forecast period: 1500 UTC 19 January 2019 to 0000 UTC 20 January 2019
Forecast type: FROM: standard forecast or significant change
Winds: from the N (350 degrees) at 9 MPH (8 knots; 4.1 m/s)
Visibility: 6 or more miles 10+ km)
Ceiling: unknown
Clouds: missing
Weather: NSW  (no significant weather)